Time;durP1;ratioP1;P1;durP2;ratioP2;P2;SDS_P1;SDS_P2;PMS_P1;PMS_P2;Temp;Humidity;BMP_temperature;BMP_pressure;BME280_temperature;BME280_humidity;BME280_pressure;Samples;Min_cycle;Max_cycle;Signal;HPM_P1;HPM_P2
2023/04/04 00:01:23;;;;;;;0.20;0.10;;;;;;;;;;4983144;28;20077;-77
2023/04/04 00:03:50;;;;;;;0.28;0.28;;;;;;;;;;4998299;28;20046;-77
2023/04/04 00:06:19;;;;;;;0.20;0.10;;;;;;;;;;4985484;28;20035;-77
2023/04/04 00:08:46;;;;;;;0.20;0.10;;;;;;;;;;4985850;28;20577;-77
2023/04/04 00:11:12;;;;;;;0.20;0.10;;;;;;;;;;4975925;28;20064;-77
2023/04/04 00:13:38;;;;;;;0.20;0.15;;;;;;;;;;4996761;28;20049;-76
2023/04/04 00:16:05;;;;;;;0.20;0.10;;;;;;;;;;5000390;28;20099;-77
2023/04/04 00:18:31;;;;;;;0.45;0.25;;;;;;;;;;4981805;28;20060;-77
2023/04/04 00:20:58;;;;;;;0.20;0.10;;;;;;;;;;4999396;28;20096;-77
2023/04/04 00:23:24;;;;;;;0.20;0.10;;;;;;;;;;4999786;28;20096;-77
2023/04/04 00:25:51;;;;;;;0.20;0.10;;;;;;;;;;4996189;28;20038;-76
2023/04/04 00:28:17;;;;;;;0.20;0.10;;;;;;;;;;4985210;28;20095;-76
2023/04/04 00:30:43;;;;;;;0.20;0.10;;;;;;;;;;5001294;28;20566;-77
2023/04/04 00:33:09;;;;;;;0.20;0.10;;;;;;;;;;4984347;28;20125;-77
2023/04/04 00:35:35;;;;;;;0.20;0.10;;;;;;;;;;4981007;28;20046;-77
2023/04/04 00:38:01;;;;;;;0.20;0.10;;;;;;;;;;4982764;28;20597;-77
2023/04/04 00:40:27;;;;;;;0.20;0.10;;;;;;;;;;4997839;28;20046;-76
2023/04/04 00:42:53;;;;;;;0.20;0.10;;;;;;;;;;4976825;28;20495;-77
2023/04/04 00:45:20;;;;;;;0.20;0.10;;;;;;;;;;4983745;28;20160;-77
2023/04/04 00:47:46;;;;;;;0.20;0.10;;;;;;;;;;4993016;28;20041;-76
2023/04/04 00:50:12;;;;;;;0.20;0.10;;;;;;;;;;4998878;28;20049;-77
2023/04/04 00:52:38;;;;;;;0.20;0.10;;;;;;;;;;4999206;28;20042;-77
2023/04/04 00:55:04;;;;;;;0.20;0.10;;;;;;;;;;4997717;28;20053;-77
2023/04/04 00:57:32;;;;;;;0.20;0.10;;;;;;;;;;4997870;28;20041;-77
2023/04/04 00:59:58;;;;;;;0.20;0.10;;;;;;;;;;4998301;28;20046;-77
2023/04/04 01:02:25;;;;;;;0.20;0.10;;;;;;;;;;4998602;28;20401;-78
2023/04/04 01:04:51;;;;;;;0.20;0.10;;;;;;;;;;4993511;28;20065;-77
2023/04/04 01:07:18;;;;;;;0.20;0.10;;;;;;;;;;4999057;28;20115;-77
2023/04/04 01:09:44;;;;;;;0.20;0.10;;;;;;;;;;4984006;28;20037;-77
2023/04/04 01:12:11;;;;;;;0.20;0.10;;;;;;;;;;4983041;28;20038;-77
2023/04/04 01:14:37;;;;;;;0.20;0.10;;;;;;;;;;4997653;28;20037;-77
2023/04/04 01:17:03;;;;;;;0.20;0.20;;;;;;;;;;4996492;28;20042;-77
2023/04/04 01:19:31;;;;;;;0.20;0.10;;;;;;;;;;4998292;28;20037;-77
2023/04/04 01:21:59;;;;;;;0.20;0.10;;;;;;;;;;5000682;28;20044;-77
2023/04/04 01:24:26;;;;;;;0.40;0.40;;;;;;;;;;4980772;28;20045;-77
2023/04/04 01:26:53;;;;;;;0.20;0.10;;;;;;;;;;4983342;28;20034;-77
2023/04/04 01:29:19;;;;;;;0.20;0.10;;;;;;;;;;4999687;28;20402;-77
2023/04/04 01:31:53;;;;;;;0.20;0.10;;;;;;;;;;4998628;28;20033;-77
2023/04/04 01:34:34;;;;;;;0.20;0.10;;;;;;;;;;4996273;28;20506;-77
2023/04/04 01:37:00;;;;;;;0.20;0.10;;;;;;;;;;4974627;28;20284;-77
2023/04/04 01:39:29;;;;;;;0.20;0.10;;;;;;;;;;4998252;28;20081;-77
2023/04/04 01:41:56;;;;;;;0.20;0.10;;;;;;;;;;4982981;28;20121;-77
2023/04/04 01:44:23;;;;;;;0.25;0.15;;;;;;;;;;4998511;28;21344;-77
2023/04/04 01:46:53;;;;;;;0.20;0.10;;;;;;;;;;4998022;28;20041;-77
2023/04/04 01:49:20;;;;;;;0.20;0.13;;;;;;;;;;4997986;28;20041;-77
2023/04/04 01:51:46;;;;;;;0.20;0.10;;;;;;;;;;4982240;28;20361;-77
2023/04/04 01:54:12;;;;;;;0.20;0.10;;;;;;;;;;4985027;28;20045;-77
2023/04/04 01:56:38;;;;;;;0.20;0.10;;;;;;;;;;4996697;28;20038;-77
2023/04/04 01:59:04;;;;;;;0.20;0.10;;;;;;;;;;4996875;28;20042;-77
2023/04/04 02:01:32;;;;;;;0.20;0.10;;;;;;;;;;4981191;28;20042;-76
2023/04/04 02:03:58;;;;;;;0.20;0.10;;;;;;;;;;5000126;28;20091;-76
2023/04/04 02:06:24;;;;;;;0.20;0.10;;;;;;;;;;4996974;28;20150;-76
2023/04/04 02:08:50;;;;;;;0.20;0.10;;;;;;;;;;4991827;28;20047;-76
2023/04/04 02:11:16;;;;;;;0.20;0.10;;;;;;;;;;4997786;28;20515;-75
2023/04/04 02:13:43;;;;;;;0.25;0.20;;;;;;;;;;4982391;28;20042;-76
2023/04/04 02:16:09;;;;;;;0.20;0.10;;;;;;;;;;4996640;28;20101;-76
2023/04/04 02:18:35;;;;;;;0.20;0.10;;;;;;;;;;4982662;28;20429;-76
2023/04/04 02:21:01;;;;;;;0.20;0.10;;;;;;;;;;4985162;28;20058;-76
2023/04/04 02:23:28;;;;;;;0.30;0.30;;;;;;;;;;4998453;28;20099;-76
2023/04/04 02:25:54;;;;;;;0.20;0.10;;;;;;;;;;4996159;28;20038;-76
2023/04/04 02:28:20;;;;;;;0.20;0.10;;;;;;;;;;4999755;28;20034;-76
2023/04/04 02:30:46;;;;;;;0.20;0.10;;;;;;;;;;4982918;28;20037;-76
2023/04/04 02:33:12;;;;;;;0.20;0.10;;;;;;;;;;4998439;28;20056;-79
2023/04/04 02:35:38;;;;;;;0.20;0.10;;;;;;;;;;4983299;28;20042;-79
2023/04/04 02:38:04;;;;;;;0.20;0.10;;;;;;;;;;4996756;28;20141;-77
2023/04/04 02:40:30;;;;;;;0.20;0.10;;;;;;;;;;4984354;28;20038;-77
2023/04/04 02:42:56;;;;;;;0.20;0.10;;;;;;;;;;4982839;28;20625;-77
2023/04/04 02:45:22;;;;;;;0.20;0.10;;;;;;;;;;4998736;28;20088;-77
2023/04/04 02:47:51;;;;;;;0.20;0.10;;;;;;;;;;4997843;28;20042;-77
2023/04/04 02:50:17;;;;;;;0.20;0.10;;;;;;;;;;4998182;28;20230;-77
2023/04/04 02:52:44;;;;;;;0.20;0.10;;;;;;;;;;4999879;28;20049;-77
2023/04/04 02:55:10;;;;;;;0.20;0.10;;;;;;;;;;4999095;28;20049;-77
2023/04/04 02:57:36;;;;;;;0.20;0.10;;;;;;;;;;4983066;28;20042;-77
2023/04/04 03:00:03;;;;;;;0.20;0.20;;;;;;;;;;4981690;28;20414;-77
2023/04/04 03:02:29;;;;;;;0.20;0.10;;;;;;;;;;4986119;28;20042;-77
2023/04/04 03:04:55;;;;;;;0.20;0.10;;;;;;;;;;4995694;28;20294;-78
2023/04/04 03:07:22;;;;;;;0.20;0.10;;;;;;;;;;4993061;28;20454;-77
2023/04/04 03:09:48;;;;;;;0.20;0.10;;;;;;;;;;4995845;28;20038;-77
2023/04/04 03:12:14;;;;;;;0.20;0.10;;;;;;;;;;4999161;28;20421;-77
2023/04/04 03:14:40;;;;;;;0.20;0.10;;;;;;;;;;4999411;28;20121;-77
2023/04/04 03:17:08;;;;;;;0.20;0.10;;;;;;;;;;4996137;28;20045;-78
2023/04/04 03:19:34;;;;;;;0.20;0.10;;;;;;;;;;4987615;28;20045;-77
2023/04/04 03:22:00;;;;;;;0.20;0.10;;;;;;;;;;4986554;28;20042;-77
2023/04/04 03:24:27;;;;;;;0.20;0.10;;;;;;;;;;4997709;28;20077;-78
2023/04/04 03:26:53;;;;;;;0.20;0.10;;;;;;;;;;4986494;28;20044;-78
2023/04/04 03:29:19;;;;;;;0.20;0.10;;;;;;;;;;4999693;28;20097;-77
2023/04/04 03:31:45;;;;;;;0.30;0.30;;;;;;;;;;4998838;28;20112;-78
2023/04/04 03:34:11;;;;;;;0.20;0.10;;;;;;;;;;5001838;28;20046;-78
2023/04/04 03:36:37;;;;;;;1.45;0.57;;;;;;;;;;4982844;28;20178;-78
2023/04/04 03:39:03;;;;;;;0.93;0.63;;;;;;;;;;4998495;28;20038;-78
2023/04/04 03:41:29;;;;;;;0.20;0.10;;;;;;;;;;5002064;28;20080;-78
2023/04/04 03:43:55;;;;;;;1.08;0.55;;;;;;;;;;4979677;28;20921;-78
2023/04/04 03:46:21;;;;;;;0.20;0.10;;;;;;;;;;4996013;28;20132;-78
2023/04/04 03:48:47;;;;;;;0.20;0.10;;;;;;;;;;5000608;28;20358;-78
2023/04/04 03:51:13;;;;;;;0.20;0.20;;;;;;;;;;4996617;28;20072;-78
2023/04/04 03:53:40;;;;;;;0.20;0.10;;;;;;;;;;4998165;28;20510;-78
2023/04/04 03:56:06;;;;;;;0.20;0.10;;;;;;;;;;4983690;28;20061;-78
2023/04/04 03:58:32;;;;;;;0.20;0.10;;;;;;;;;;4983099;28;20050;-78
2023/04/04 04:00:58;;;;;;;0.20;0.10;;;;;;;;;;4993717;28;20045;-78
2023/04/04 04:03:24;;;;;;;0.20;0.10;;;;;;;;;;5000022;28;20046;-78
2023/04/04 04:05:50;;;;;;;0.20;0.10;;;;;;;;;;4982702;28;20075;-78
2023/04/04 04:08:16;;;;;;;0.20;0.10;;;;;;;;;;4983432;28;20029;-78
2023/04/04 04:10:42;;;;;;;0.20;0.10;;;;;;;;;;4982838;28;20038;-78
2023/04/04 04:13:08;;;;;;;0.20;0.10;;;;;;;;;;4983641;28;20038;-78
2023/04/04 04:15:34;;;;;;;0.30;0.20;;;;;;;;;;4996848;28;20462;-78
2023/04/04 04:18:00;;;;;;;0.20;0.10;;;;;;;;;;4994899;28;20792;-78
2023/04/04 04:20:26;;;;;;;2.10;0.50;;;;;;;;;;4999780;28;20053;-78
2023/04/04 04:22:52;;;;;;;0.20;0.10;;;;;;;;;;5002692;28;20069;-78
2023/04/04 04:25:18;;;;;;;0.20;0.10;;;;;;;;;;4995259;28;20386;-78
2023/04/04 04:27:44;;;;;;;0.20;0.10;;;;;;;;;;4998867;28;20061;-78
2023/04/04 04:30:11;;;;;;;0.30;0.25;;;;;;;;;;5001122;28;20520;-78
2023/04/04 04:32:37;;;;;;;0.20;0.10;;;;;;;;;;4997206;28;20046;-78
2023/04/04 04:35:04;;;;;;;0.20;0.15;;;;;;;;;;5000802;28;20060;-78
2023/04/04 04:37:30;;;;;;;1.67;0.40;;;;;;;;;;4999864;28;20053;-78
2023/04/04 04:39:57;;;;;;;0.20;0.20;;;;;;;;;;5000237;28;20046;-78
2023/04/04 04:42:23;;;;;;;0.20;0.10;;;;;;;;;;4996507;28;20494;-78
2023/04/04 04:44:49;;;;;;;0.20;0.10;;;;;;;;;;4997533;28;20515;-78
2023/04/04 04:47:15;;;;;;;0.20;0.10;;;;;;;;;;4996551;28;20030;-78
2023/04/04 04:49:43;;;;;;;0.20;0.10;;;;;;;;;;4980734;28;20526;-78
2023/04/04 04:52:09;;;;;;;0.20;0.10;;;;;;;;;;4996858;28;20103;-78
2023/04/04 04:54:35;;;;;;;0.20;0.10;;;;;;;;;;5004889;23;20072;-80
2023/04/04 04:57:01;;;;;;;0.20;0.10;;;;;;;;;;5005792;28;20077;-80
2023/04/04 04:59:28;;;;;;;0.20;0.10;;;;;;;;;;4999565;28;20128;-80
2023/04/04 05:01:54;;;;;;;0.20;0.10;;;;;;;;;;4995596;28;20044;-80
2023/04/04 05:04:20;;;;;;;0.20;0.10;;;;;;;;;;4989130;28;20418;-80
2023/04/04 05:06:46;;;;;;;0.20;0.10;;;;;;;;;;4991167;28;20491;-80
2023/04/04 05:09:13;;;;;;;0.20;0.10;;;;;;;;;;4974250;28;20136;-80
2023/04/04 05:11:39;;;;;;;0.30;0.30;;;;;;;;;;4982681;28;20042;-80
2023/04/04 05:14:07;;;;;;;0.20;0.15;;;;;;;;;;4994376;28;20038;-80
2023/04/04 05:16:34;;;;;;;0.20;0.10;;;;;;;;;;4980311;28;20136;-80
2023/04/04 05:19:00;;;;;;;0.20;0.10;;;;;;;;;;4991431;28;20050;-80
2023/04/04 05:21:26;;;;;;;0.20;0.10;;;;;;;;;;4984346;28;20054;-80
2023/04/04 05:23:52;;;;;;;0.20;0.10;;;;;;;;;;4979709;28;20046;-80
2023/04/04 05:26:18;;;;;;;0.20;0.10;;;;;;;;;;4975825;28;20038;-81
2023/04/04 05:28:44;;;;;;;0.20;0.10;;;;;;;;;;4995622;28;20423;-80
2023/04/04 05:31:11;;;;;;;0.20;0.20;;;;;;;;;;4994078;28;20049;-80
2023/04/04 05:33:37;;;;;;;0.35;0.35;;;;;;;;;;4991713;28;20740;-80
2023/04/04 05:36:03;;;;;;;0.20;0.10;;;;;;;;;;4995715;28;20350;-80
2023/04/04 05:38:29;;;;;;;0.20;0.10;;;;;;;;;;4979109;28;20116;-80
2023/04/04 05:40:55;;;;;;;0.20;0.10;;;;;;;;;;4994278;28;20507;-80
2023/04/04 05:43:21;;;;;;;0.20;0.10;;;;;;;;;;4982129;28;20089;-81
2023/04/04 05:45:47;;;;;;;0.20;0.10;;;;;;;;;;4994398;28;20095;-81
2023/04/04 05:48:14;;;;;;;0.20;0.10;;;;;;;;;;4973931;28;20120;-80
2023/04/04 05:50:40;;;;;;;0.20;0.10;;;;;;;;;;4982754;28;20034;-80
2023/04/04 05:53:06;;;;;;;0.20;0.10;;;;;;;;;;4992330;28;20052;-81
2023/04/04 05:55:32;;;;;;;0.20;0.10;;;;;;;;;;4999545;28;20046;-80
2023/04/04 05:57:58;;;;;;;0.20;0.10;;;;;;;;;;4991134;28;20056;-80
2023/04/04 06:00:24;;;;;;;0.20;0.10;;;;;;;;;;4999153;28;20045;-80
2023/04/04 06:02:52;;;;;;;0.20;0.10;;;;;;;;;;4992265;28;20434;-80
2023/04/04 06:05:18;;;;;;;0.20;0.10;;;;;;;;;;4981240;28;20041;-79
2023/04/04 06:07:44;;;;;;;0.20;0.10;;;;;;;;;;4997491;28;20490;-79
2023/04/04 06:10:10;;;;;;;0.30;0.30;;;;;;;;;;4993755;28;20100;-79
2023/04/04 06:12:36;;;;;;;0.20;0.10;;;;;;;;;;4997719;28;20041;-79
2023/04/04 06:15:02;;;;;;;0.20;0.10;;;;;;;;;;4994524;28;20045;-79
2023/04/04 06:17:28;;;;;;;0.20;0.10;;;;;;;;;;4991965;28;20085;-79
2023/04/04 06:19:54;;;;;;;0.20;0.10;;;;;;;;;;4991183;28;20046;-78
2023/04/04 06:22:20;;;;;;;0.20;0.17;;;;;;;;;;4989980;28;20286;-79
2023/04/04 06:24:46;;;;;;;0.20;0.10;;;;;;;;;;4994774;28;20034;-79
2023/04/04 06:27:12;;;;;;;0.20;0.10;;;;;;;;;;4992091;28;20070;-79
2023/04/04 06:29:38;;;;;;;0.20;0.10;;;;;;;;;;4990749;28;20077;-79
2023/04/04 06:32:04;;;;;;;0.20;0.10;;;;;;;;;;4991810;28;20050;-79
2023/04/04 06:34:31;;;;;;;0.20;0.10;;;;;;;;;;4975989;28;20120;-79
2023/04/04 06:36:57;;;;;;;0.20;0.10;;;;;;;;;;4979583;28;20506;-79
2023/04/04 06:39:23;;;;;;;0.20;0.10;;;;;;;;;;4990215;28;20057;-78
2023/04/04 06:41:49;;;;;;;0.20;0.10;;;;;;;;;;4979855;28;20042;-78
2023/04/04 06:44:15;;;;;;;0.20;0.10;;;;;;;;;;4981811;28;20498;-77
2023/04/04 06:46:41;;;;;;;0.20;0.10;;;;;;;;;;4991836;28;20043;-78
2023/04/04 06:49:07;;;;;;;0.20;0.10;;;;;;;;;;4991729;28;20042;-78
2023/04/04 06:51:33;;;;;;;0.20;0.17;;;;;;;;;;4991984;28;20044;-78
2023/04/04 06:54:00;;;;;;;0.20;0.10;;;;;;;;;;4994855;28;20052;-78
2023/04/04 06:56:26;;;;;;;0.20;0.10;;;;;;;;;;4992993;28;20046;-78
2023/04/04 06:58:52;;;;;;;0.20;0.10;;;;;;;;;;4999380;28;20081;-78
2023/04/04 07:01:18;;;;;;;0.20;0.10;;;;;;;;;;4998076;28;20038;-78
2023/04/04 07:03:44;;;;;;;0.20;0.10;;;;;;;;;;4997130;28;20046;-78
2023/04/04 07:06:11;;;;;;;0.20;0.10;;;;;;;;;;4997661;28;20092;-78
2023/04/04 07:08:37;;;;;;;0.20;0.10;;;;;;;;;;4984515;28;20056;-78
2023/04/04 07:11:03;;;;;;;0.20;0.10;;;;;;;;;;5000943;28;20045;-78
2023/04/04 07:13:29;;;;;;;0.20;0.10;;;;;;;;;;4983545;28;20060;-78
2023/04/04 07:15:55;;;;;;;0.20;0.10;;;;;;;;;;4977675;28;20046;-78
2023/04/04 07:18:21;;;;;;;0.20;0.10;;;;;;;;;;4996582;28;20092;-78
2023/04/04 07:20:47;;;;;;;0.20;0.10;;;;;;;;;;4996868;28;20578;-78
2023/04/04 07:23:14;;;;;;;0.20;0.10;;;;;;;;;;4995232;28;20514;-79
2023/04/04 07:25:40;;;;;;;0.20;0.10;;;;;;;;;;4977610;28;20076;-78
2023/04/04 07:28:06;;;;;;;0.20;0.10;;;;;;;;;;4980576;28;20038;-77
2023/04/04 07:30:32;;;;;;;0.20;0.13;;;;;;;;;;4993200;28;20650;-78
2023/04/04 07:32:59;;;;;;;0.20;0.10;;;;;;;;;;4991881;28;20042;-78
2023/04/04 07:35:25;;;;;;;0.20;0.10;;;;;;;;;;4992436;28;20124;-78
2023/04/04 07:37:51;;;;;;;0.20;0.10;;;;;;;;;;4992448;28;20038;-78
2023/04/04 07:40:17;;;;;;;0.20;0.10;;;;;;;;;;4995158;28;20628;-78
2023/04/04 07:42:44;;;;;;;0.20;0.10;;;;;;;;;;4993739;28;20146;-78
2023/04/04 07:45:10;;;;;;;0.20;0.20;;;;;;;;;;4992151;28;20045;-79
2023/04/04 07:47:36;;;;;;;0.20;0.10;;;;;;;;;;4992902;28;20053;-78
2023/04/04 07:50:03;;;;;;;0.20;0.10;;;;;;;;;;4996521;28;20399;-78
2023/04/04 07:52:29;;;;;;;0.20;0.10;;;;;;;;;;4992049;28;20064;-78
2023/04/04 07:54:55;;;;;;;0.20;0.10;;;;;;;;;;4989928;28;20041;-79
2023/04/04 07:57:21;;;;;;;0.20;0.10;;;;;;;;;;4994758;28;20034;-78
2023/04/04 07:59:47;;;;;;;0.20;0.10;;;;;;;;;;4989716;28;20573;-78
2023/04/04 08:02:13;;;;;;;0.20;0.10;;;;;;;;;;4992425;28;20034;-78
2023/04/04 08:04:39;;;;;;;0.20;0.10;;;;;;;;;;4992749;28;20069;-79
2023/04/04 08:07:05;;;;;;;0.20;0.15;;;;;;;;;;4993765;28;20077;-78
2023/04/04 08:09:34;;;;;;;0.20;0.20;;;;;;;;;;4994488;28;20375;-79
2023/04/04 08:12:01;;;;;;;0.20;0.10;;;;;;;;;;4991973;28;20042;-80
2023/04/04 08:14:27;;;;;;;0.20;0.10;;;;;;;;;;4993837;28;20085;-78
2023/04/04 08:16:53;;;;;;;0.47;0.35;;;;;;;;;;4997474;28;20548;-79
2023/04/04 08:19:20;;;;;;;0.20;0.10;;;;;;;;;;4994148;28;20121;-78
2023/04/04 08:21:45;;;;;;;0.20;0.10;;;;;;;;;;4978455;28;20480;-79
2023/04/04 08:24:12;;;;;;;0.20;0.20;;;;;;;;;;4991195;28;20057;-78
2023/04/04 08:26:38;;;;;;;0.20;0.10;;;;;;;;;;4996498;28;20042;-78
2023/04/04 08:29:04;;;;;;;0.20;0.10;;;;;;;;;;4989984;28;20528;-78
2023/04/04 08:31:30;;;;;;;0.20;0.10;;;;;;;;;;4994712;28;20510;-79
2023/04/04 08:33:56;;;;;;;0.20;0.10;;;;;;;;;;4981683;28;20175;-78
2023/04/04 08:36:22;;;;;;;0.45;0.30;;;;;;;;;;4994320;28;20095;-79
2023/04/04 08:38:48;;;;;;;0.20;0.10;;;;;;;;;;4995706;28;20045;-79
2023/04/04 08:41:14;;;;;;;0.20;0.10;;;;;;;;;;4997101;28;20042;-77
2023/04/04 08:43:44;;;;;;;0.20;0.10;;;;;;;;;;4996289;28;20042;-78
2023/04/04 08:46:12;;;;;;;0.20;0.10;;;;;;;;;;4997122;28;20328;-79
2023/04/04 08:48:40;;;;;;;0.20;0.10;;;;;;;;;;4997086;28;20034;-78
2023/04/04 08:51:07;;;;;;;0.20;0.10;;;;;;;;;;4988796;28;20053;-78
2023/04/04 08:53:34;;;;;;;0.20;0.10;;;;;;;;;;4982370;28;20313;-78
2023/04/04 08:56:00;;;;;;;0.28;0.20;;;;;;;;;;4995612;28;20540;-79
2023/04/04 08:58:27;;;;;;;0.20;0.10;;;;;;;;;;4989489;28;20077;-78
2023/04/04 09:00:53;;;;;;;0.20;0.10;;;;;;;;;;4975998;28;20120;-79
2023/04/04 09:03:23;;;;;;;0.20;0.10;;;;;;;;;;4984616;28;20526;-78
2023/04/04 09:05:49;;;;;;;0.20;0.10;;;;;;;;;;4994374;28;20039;-79
2023/04/04 09:08:17;;;;;;;0.20;0.10;;;;;;;;;;4995710;28;20156;-78
2023/04/04 09:10:43;;;;;;;0.20;0.10;;;;;;;;;;4997256;28;20064;-77
2023/04/04 09:13:09;;;;;;;0.20;0.10;;;;;;;;;;4991237;28;20519;-78
2023/04/04 09:15:37;;;;;;;0.20;0.20;;;;;;;;;;4993901;28;20392;-79
2023/04/04 09:18:03;;;;;;;0.20;0.10;;;;;;;;;;4993689;28;20053;-78
2023/04/04 09:20:35;;;;;;;0.20;0.10;;;;;;;;;;4992412;28;20247;-77
2023/04/04 09:23:04;;;;;;;0.20;0.10;;;;;;;;;;4979515;28;20077;-78
2023/04/04 09:25:30;;;;;;;0.20;0.10;;;;;;;;;;4992185;28;20255;-77
2023/04/04 09:27:56;;;;;;;0.20;0.10;;;;;;;;;;4996500;28;20429;-78
2023/04/04 09:30:24;;;;;;;0.20;0.10;;;;;;;;;;4994665;28;20060;-78
2023/04/04 09:32:50;;;;;;;0.20;0.10;;;;;;;;;;4998442;28;20049;-79
2023/04/04 09:35:16;;;;;;;0.20;0.10;;;;;;;;;;4984668;28;20046;-77
2023/04/04 09:37:43;;;;;;;0.20;0.10;;;;;;;;;;4993456;28;20485;-79
2023/04/04 09:40:09;;;;;;;0.20;0.10;;;;;;;;;;4995194;28;20042;-78
2023/04/04 09:42:35;;;;;;;0.20;0.10;;;;;;;;;;4994403;28;20057;-79
2023/04/04 09:45:02;;;;;;;0.20;0.10;;;;;;;;;;4992507;28;20133;-79
2023/04/04 09:47:31;;;;;;;0.20;0.10;;;;;;;;;;4993181;28;20077;-77
2023/04/04 09:49:58;;;;;;;0.20;0.10;;;;;;;;;;4993662;28;20042;-76
2023/04/04 09:52:24;;;;;;;0.20;0.10;;;;;;;;;;4991135;28;20037;-78
2023/04/04 09:55:00;;;;;;;0.20;0.10;;;;;;;;;;4991460;28;20142;-77
2023/04/04 09:57:28;;;;;;;0.20;0.10;;;;;;;;;;4990942;28;20050;-78
2023/04/04 10:00:01;;;;;;;0.20;0.10;;;;;;;;;;4994779;28;20384;-78
2023/04/04 10:02:29;;;;;;;0.20;0.10;;;;;;;;;;4991520;28;20073;-78
2023/04/04 10:04:56;;;;;;;0.20;0.10;;;;;;;;;;4993863;28;20072;-78
2023/04/04 10:07:28;;;;;;;0.20;0.20;;;;;;;;;;4990855;28;20099;-79
2023/04/04 10:09:56;;;;;;;0.20;0.10;;;;;;;;;;4998989;28;20034;-79
2023/04/04 10:12:23;;;;;;;0.20;0.20;;;;;;;;;;4992919;28;20648;-79
2023/04/04 10:14:59;;;;;;;0.20;0.10;;;;;;;;;;4998612;28;20039;-79
2023/04/04 10:17:36;;;;;;;0.20;0.10;;;;;;;;;;4979994;28;20331;-82
2023/04/04 10:20:04;;;;;;;0.20;0.10;;;;;;;;;;4995280;28;20038;-79
2023/04/04 10:22:31;;;;;;;0.20;0.10;;;;;;;;;;4990424;28;20426;-80
2023/04/04 10:24:58;;;;;;;0.20;0.10;;;;;;;;;;4989339;28;20475;-80
2023/04/04 10:27:24;;;;;;;0.20;0.10;;;;;;;;;;4998566;28;20128;-80
2023/04/04 10:29:50;;;;;;;0.20;0.10;;;;;;;;;;4994505;28;20457;-79
2023/04/04 10:32:23;;;;;;;0.20;0.10;;;;;;;;;;4996957;28;20042;-80
2023/04/04 10:35:00;;;;;;;0.20;0.10;;;;;;;;;;5001237;28;20046;-80
2023/04/04 10:37:27;;;;;;;0.20;0.10;;;;;;;;;;5000758;28;20046;-80
2023/04/04 10:40:09;;;;;;;0.20;0.10;;;;;;;;;;4991525;28;20034;-80
2023/04/04 10:42:41;;;;;;;0.20;0.10;;;;;;;;;;5000696;28;20044;-79
2023/04/04 10:45:12;;;;;;;0.20;0.10;;;;;;;;;;4983727;28;20448;-80
2023/04/04 10:47:38;;;;;;;0.20;0.10;;;;;;;;;;4982420;28;20040;-80
2023/04/04 10:50:10;;;;;;;0.20;0.10;;;;;;;;;;5001650;28;20029;-81
2023/04/04 10:52:38;;;;;;;0.20;0.10;;;;;;;;;;5000594;28;20514;-80
2023/04/04 10:55:05;;;;;;;0.20;0.10;;;;;;;;;;5004754;23;20638;-76
2023/04/04 10:57:32;;;;;;;0.20;0.10;;;;;;;;;;4976419;28;20321;-76
2023/04/04 11:00:09;;;;;;;0.20;0.10;;;;;;;;;;4981851;28;20052;-76
2023/04/04 11:02:44;;;;;;;0.20;0.10;;;;;;;;;;4966612;28;20053;-77
2023/04/04 11:05:14;;;;;;;0.20;0.10;;;;;;;;;;4978462;28;20098;-77
2023/04/04 11:07:41;;;;;;;0.20;0.10;;;;;;;;;;4962620;28;20045;-77
2023/04/04 11:10:15;;;;;;;0.20;0.10;;;;;;;;;;4967930;28;20053;-77
2023/04/04 11:12:46;;;;;;;0.20;0.10;;;;;;;;;;4976827;28;20042;-77
2023/04/04 11:15:13;;;;;;;0.20;0.10;;;;;;;;;;4974867;28;20069;-76
2023/04/04 11:17:49;;;;;;;0.20;0.10;;;;;;;;;;4955403;28;20549;-78
2023/04/04 11:20:20;;;;;;;0.20;0.13;;;;;;;;;;4977396;28;20038;-77
2023/04/04 11:22:48;;;;;;;0.20;0.10;;;;;;;;;;4962971;28;20554;-77
2023/04/04 11:25:38;;;;;;;0.20;0.10;;;;;;;;;;4963919;28;20045;-78
2023/04/04 11:28:07;;;;;;;0.20;0.10;;;;;;;;;;4970802;28;20141;-77
2023/04/04 11:30:47;;;;;;;0.28;0.20;;;;;;;;;;4962591;28;20073;-76
2023/04/04 11:33:13;;;;;;;0.20;0.10;;;;;;;;;;4975267;28;20069;-77
2023/04/04 11:35:41;;;;;;;0.20;0.10;;;;;;;;;;4975873;28;20048;-77
2023/04/04 11:38:14;;;;;;;0.20;0.10;;;;;;;;;;4972274;28;20084;-77
2023/04/04 11:40:41;;;;;;;0.20;0.10;;;;;;;;;;4957312;28;20042;-77
2023/04/04 11:43:11;;;;;;;0.20;0.10;;;;;;;;;;4976778;28;20113;-77
2023/04/04 11:45:44;;;;;;;0.20;0.10;;;;;;;;;;4983694;28;20298;-77
2023/04/04 11:48:11;;;;;;;0.20;0.10;;;;;;;;;;4960360;28;20050;-77
2023/04/04 11:50:38;;;;;;;0.20;0.10;;;;;;;;;;4977771;28;20231;-77
2023/04/04 11:53:05;;;;;;;0.20;0.10;;;;;;;;;;4965521;28;20406;-77
2023/04/04 11:55:31;;;;;;;0.30;0.20;;;;;;;;;;4977641;28;20050;-77
2023/04/04 11:58:05;;;;;;;0.20;0.10;;;;;;;;;;4978787;28;20078;-76
2023/04/04 12:00:31;;;;;;;0.20;0.10;;;;;;;;;;4975267;28;20401;-76
2023/04/04 12:02:58;;;;;;;0.20;0.10;;;;;;;;;;4983237;28;20046;-76
2023/04/04 12:05:24;;;;;;;0.20;0.10;;;;;;;;;;4972756;28;20086;-76
2023/04/04 12:07:51;;;;;;;0.20;0.10;;;;;;;;;;4975637;28;20410;-77
2023/04/04 12:10:18;;;;;;;0.20;0.10;;;;;;;;;;4978865;28;20050;-77
2023/04/04 12:12:45;;;;;;;0.20;0.10;;;;;;;;;;4972302;28;20368;-77
2023/04/04 12:15:13;;;;;;;0.20;0.10;;;;;;;;;;4965643;28;20573;-77
2023/04/04 12:17:44;;;;;;;0.20;0.10;;;;;;;;;;4961879;28;20038;-79
2023/04/04 12:20:10;;;;;;;0.20;0.10;;;;;;;;;;4976739;28;20169;-77
2023/04/04 12:22:37;;;;;;;0.20;0.10;;;;;;;;;;4975768;28;20129;-78
2023/04/04 12:25:05;;;;;;;0.20;0.10;;;;;;;;;;4962620;28;20045;-77
2023/04/04 12:27:31;;;;;;;0.20;0.10;;;;;;;;;;4973176;28;20602;-78
2023/04/04 12:29:58;;;;;;;0.32;0.32;;;;;;;;;;4963457;28;20069;-77
2023/04/04 12:32:24;;;;;;;0.20;0.10;;;;;;;;;;4966334;28;20557;-78
2023/04/04 12:34:50;;;;;;;0.20;0.10;;;;;;;;;;4964829;28;20035;-78
2023/04/04 12:37:18;;;;;;;0.20;0.10;;;;;;;;;;4957873;28;20038;-77
2023/04/04 12:39:51;;;;;;;0.20;0.10;;;;;;;;;;4970406;28;20082;-77
2023/04/04 12:42:21;;;;;;;0.20;0.10;;;;;;;;;;4961241;28;20038;-77
2023/04/04 12:44:49;;;;;;;0.20;0.10;;;;;;;;;;4978611;28;20722;-77
2023/04/04 12:47:17;;;;;;;0.20;0.10;;;;;;;;;;4974078;28;20038;-77
2023/04/04 12:49:47;;;;;;;0.20;0.10;;;;;;;;;;4965445;28;20045;-77
2023/04/04 12:52:31;;;;;;;0.20;0.10;;;;;;;;;;4976713;28;20038;-77
2023/04/04 12:54:58;;;;;;;0.20;0.10;;;;;;;;;;4961817;28;20515;-78
2023/04/04 12:57:26;;;;;;;0.20;0.10;;;;;;;;;;4975772;28;20034;-77
2023/04/04 12:59:54;;;;;;;0.50;0.50;;;;;;;;;;4961702;28;20128;-77
2023/04/04 13:02:22;;;;;;;0.20;0.10;;;;;;;;;;4963091;28;20439;-76
2023/04/04 13:04:51;;;;;;;0.20;0.10;;;;;;;;;;4961358;28;20057;-77
2023/04/04 13:07:45;;;;;;;0.25;0.25;;;;;;;;;;4974504;28;20065;-76
2023/04/04 13:10:13;;;;;;;0.20;0.10;;;;;;;;;;4972578;28;20034;-76
2023/04/04 13:12:59;;;;;;;0.20;0.10;;;;;;;;;;4971275;28;20046;-77
2023/04/04 13:15:44;;;;;;;0.20;0.10;;;;;;;;;;4956893;28;20617;-77
2023/04/04 13:18:15;;;;;;;0.20;0.10;;;;;;;;;;4974051;28;20046;-78
2023/04/04 13:20:41;;;;;;;0.20;0.10;;;;;;;;;;4967735;28;20309;-77
2023/04/04 13:23:07;;;;;;;0.20;0.10;;;;;;;;;;4973629;28;20041;-77
2023/04/04 13:25:33;;;;;;;0.20;0.10;;;;;;;;;;4960730;28;20069;-77
2023/04/04 13:27:59;;;;;;;0.20;0.10;;;;;;;;;;4972149;28;20049;-77
2023/04/04 13:30:26;;;;;;;0.20;0.10;;;;;;;;;;4958420;28;20716;-77
2023/04/04 13:32:52;;;;;;;0.20;0.10;;;;;;;;;;4961767;28;20042;-77
2023/04/04 13:35:18;;;;;;;0.20;0.10;;;;;;;;;;4961746;28;20192;-76
2023/04/04 13:37:44;;;;;;;0.20;0.10;;;;;;;;;;4974294;28;20038;-78
2023/04/04 13:40:11;;;;;;;0.20;0.10;;;;;;;;;;4967863;28;20503;-77
2023/04/04 13:42:36;;;;;;;0.20;0.10;;;;;;;;;;4967552;28;20074;-77
2023/04/04 13:45:03;;;;;;;0.63;0.20;;;;;;;;;;4969328;28;20164;-77
2023/04/04 13:47:29;;;;;;;0.20;0.10;;;;;;;;;;4972617;28;20569;-77
2023/04/04 13:49:55;;;;;;;0.20;0.17;;;;;;;;;;4974806;28;20038;-77
2023/04/04 13:52:21;;;;;;;0.20;0.10;;;;;;;;;;4959181;28;20030;-76
2023/04/04 13:54:47;;;;;;;2.17;0.40;;;;;;;;;;4972577;28;20133;-77
2023/04/04 13:57:13;;;;;;;0.20;0.10;;;;;;;;;;4964430;28;20034;-78
2023/04/04 13:59:39;;;;;;;0.20;0.10;;;;;;;;;;4983190;28;20049;-77
2023/04/04 14:02:05;;;;;;;0.20;0.10;;;;;;;;;;4985021;28;20053;-77
2023/04/04 14:04:31;;;;;;;0.20;0.10;;;;;;;;;;4960743;28;20047;-76
2023/04/04 14:06:57;;;;;;;0.20;0.10;;;;;;;;;;4961243;28;20043;-77
2023/04/04 14:09:23;;;;;;;1.00;0.47;;;;;;;;;;4973628;28;20529;-77
2023/04/04 14:11:49;;;;;;;0.20;0.10;;;;;;;;;;4970469;28;20105;-77
2023/04/04 14:14:15;;;;;;;0.28;0.17;;;;;;;;;;4974108;28;20045;-76
2023/04/04 14:16:41;;;;;;;0.68;0.30;;;;;;;;;;4959416;28;20396;-76
2023/04/04 14:19:07;;;;;;;0.20;0.10;;;;;;;;;;4972942;28;20056;-76
2023/04/04 14:21:34;;;;;;;0.20;0.10;;;;;;;;;;4961811;28;20117;-77
2023/04/04 14:24:00;;;;;;;0.20;0.10;;;;;;;;;;4976042;28;20118;-77
2023/04/04 14:26:26;;;;;;;0.28;0.15;;;;;;;;;;4960313;28;20471;-78
2023/04/04 14:28:52;;;;;;;0.20;0.10;;;;;;;;;;4958898;28;20424;-76
2023/04/04 14:31:18;;;;;;;0.20;0.10;;;;;;;;;;4972060;28;20096;-76
2023/04/04 14:33:44;;;;;;;0.20;0.10;;;;;;;;;;4971460;28;20035;-77
2023/04/04 14:36:10;;;;;;;0.57;0.20;;;;;;;;;;4963114;28;20038;-78
2023/04/04 14:38:36;;;;;;;0.20;0.20;;;;;;;;;;4969879;28;20764;-77
2023/04/04 14:41:02;;;;;;;0.20;0.10;;;;;;;;;;4971645;28;21002;-76
2023/04/04 14:43:28;;;;;;;0.20;0.10;;;;;;;;;;4964196;28;20487;-76